createdAt,value
2023-05-16T00:00:43.009Z,94479.00
2023-05-16T00:01:43.143Z,94477.00
2023-05-16T00:02:43.289Z,94477.00
2023-05-16T00:03:43.325Z,94475.00
2023-05-16T00:04:43.359Z,94475.00
2023-05-16T00:05:43.338Z,94475.00
2023-05-16T00:06:43.771Z,94475.00
2023-05-16T00:07:43.521Z,94473.00
2023-05-16T00:08:43.558Z,94471.00
2023-05-16T00:09:43.579Z,94471.00
2023-05-16T00:10:43.626Z,94471.00
2023-05-16T00:11:43.698Z,94469.00
2023-05-16T00:12:43.780Z,94469.00
2023-05-16T00:13:43.817Z,94469.00
2023-05-16T00:14:43.918Z,94471.00
2023-05-16T00:15:43.985Z,94469.00
2023-05-16T00:16:44.076Z,94469.00
2023-05-16T00:17:44.156Z,94469.00
2023-05-16T00:18:44.152Z,94469.00
2023-05-16T00:19:44.202Z,94464.00
2023-05-16T00:20:44.274Z,94465.00
2023-05-16T00:21:44.386Z,94462.00
2023-05-16T00:22:44.402Z,94462.00
2023-05-16T00:23:44.486Z,94460.00
2023-05-16T00:24:44.518Z,94460.00
2023-05-16T00:25:44.679Z,94462.00
2023-05-16T00:26:44.685Z,94458.00
2023-05-16T00:27:44.746Z,94460.00
2023-05-16T00:28:44.788Z,94458.00
2023-05-16T00:29:44.851Z,94456.00
2023-05-16T00:30:44.917Z,94454.00
2023-05-16T00:31:45.043Z,94456.00
2023-05-16T00:32:45.058Z,94454.00
2023-05-16T00:33:45.159Z,94454.00
2023-05-16T00:34:45.178Z,94454.00
2023-05-16T00:35:45.222Z,94452.00
2023-05-16T00:36:45.261Z,94452.00
2023-05-16T00:37:45.347Z,94452.00
2023-05-16T00:38:45.420Z,94452.00
2023-05-16T00:39:45.602Z,94452.00
2023-05-16T00:40:45.571Z,94452.00
2023-05-16T00:41:45.551Z,94452.00
2023-05-16T00:42:45.622Z,94452.00
2023-05-16T00:43:45.702Z,94450.00
2023-05-16T00:44:45.790Z,94450.00
2023-05-16T00:45:45.776Z,94448.00
2023-05-16T00:46:45.890Z,94450.00
2023-05-16T00:47:46.026Z,94450.00
2023-05-16T00:48:45.977Z,94446.00
2023-05-16T00:49:46.093Z,94450.00
2023-05-16T00:50:46.098Z,94450.00
2023-05-16T00:51:46.132Z,94448.00
2023-05-16T00:52:46.243Z,94452.00
2023-05-16T00:53:46.257Z,94448.00
2023-05-16T00:54:46.324Z,94450.00
2023-05-16T00:55:46.389Z,94450.00
2023-05-16T00:56:46.449Z,94452.00
2023-05-16T00:57:46.544Z,94454.00
2023-05-16T00:58:46.607Z,94452.00
2023-05-16T00:59:46.713Z,94452.00
2023-05-16T01:00:48.591Z,94452.00
2023-05-16T01:01:46.873Z,94450.00
2023-05-16T01:02:46.939Z,94452.00
2023-05-16T01:03:48.087Z,94452.00
2023-05-16T01:04:47.011Z,94448.00
2023-05-16T01:05:47.014Z,94444.00
2023-05-16T01:06:47.060Z,94448.00
2023-05-16T01:07:47.165Z,94444.00
2023-05-16T01:08:47.202Z,94444.00
2023-05-16T01:09:47.222Z,94444.00
2023-05-16T01:10:47.257Z,94444.00
2023-05-16T01:11:47.864Z,94442.00
2023-05-16T01:12:47.389Z,94444.00
2023-05-16T01:13:47.474Z,94444.00
2023-05-16T01:14:47.584Z,94442.00
2023-05-16T01:15:47.519Z,94444.00
2023-05-16T01:16:47.706Z,94442.00
2023-05-16T01:17:47.875Z,94442.00
2023-05-16T01:18:47.726Z,94442.00
2023-05-16T01:19:47.858Z,94442.00
2023-05-16T01:20:47.864Z,94444.00
2023-05-16T01:21:48.038Z,94442.00
2023-05-16T01:22:47.968Z,94444.00
2023-05-16T01:23:48.059Z,94444.00
2023-05-16T01:24:48.151Z,94438.00
2023-05-16T01:25:48.169Z,94444.00
2023-05-16T01:26:48.192Z,94442.00
2023-05-16T01:27:48.285Z,94444.00
2023-05-16T01:28:48.389Z,94444.00
2023-05-16T01:29:48.402Z,94442.00
2023-05-16T01:30:48.492Z,94444.00
2023-05-16T01:31:48.573Z,94442.00
2023-05-16T01:32:48.619Z,94440.00
2023-05-16T01:33:48.631Z,94440.00
2023-05-16T01:34:48.642Z,94442.00
2023-05-16T01:35:48.675Z,94436.00
2023-05-16T01:36:48.691Z,94438.00
2023-05-16T01:37:48.739Z,94438.00
2023-05-16T01:38:48.802Z,94438.00
2023-05-16T01:39:48.891Z,94438.00
2023-05-16T01:40:48.903Z,94438.00
2023-05-16T01:41:48.971Z,94438.00
2023-05-16T01:42:49.109Z,94436.00
2023-05-16T01:43:49.109Z,94438.00
2023-05-16T01:44:49.238Z,94440.00
2023-05-16T01:45:49.202Z,94438.00
2023-05-16T01:46:49.238Z,94438.00
2023-05-16T01:47:49.378Z,94438.00
2023-05-16T01:48:49.331Z,94436.00
2023-05-16T01:49:49.461Z,94434.00
2023-05-16T01:50:49.446Z,94432.00
2023-05-16T01:51:49.522Z,94434.00
2023-05-16T01:52:49.565Z,94436.00
2023-05-16T01:53:49.585Z,94432.00
2023-05-16T01:54:49.725Z,94432.00
2023-05-16T01:55:49.689Z,94428.00
2023-05-16T01:56:49.754Z,94428.00
2023-05-16T01:57:49.837Z,94428.00
2023-05-16T01:58:49.903Z,94428.00
2023-05-16T01:59:50.044Z,94426.00
2023-05-16T02:00:50.009Z,94426.00
2023-05-16T02:01:50.033Z,94426.00
2023-05-16T02:02:50.178Z,94430.00
2023-05-16T02:03:50.206Z,94432.00
2023-05-16T02:04:50.248Z,94432.00
2023-05-16T02:05:50.287Z,94430.00
2023-05-16T02:06:50.385Z,94432.00
2023-05-16T02:07:50.423Z,94430.00
2023-05-16T02:08:50.465Z,94426.00
2023-05-16T02:09:50.631Z,94426.00
2023-05-16T02:10:50.635Z,94426.00
2023-05-16T02:11:50.698Z,94425.00
2023-05-16T02:12:50.756Z,94425.00
2023-05-16T02:13:50.735Z,94419.00
2023-05-16T02:14:50.730Z,94425.00
2023-05-16T02:15:50.787Z,94425.00
2023-05-16T02:16:50.848Z,94426.00
2023-05-16T02:17:50.926Z,94426.00
2023-05-16T02:18:51.024Z,94419.00
2023-05-16T02:19:51.004Z,94423.00
2023-05-16T02:20:51.088Z,94417.00
2023-05-16T02:21:51.122Z,94417.00
2023-05-16T02:22:51.197Z,94417.00
2023-05-16T02:23:51.234Z,94415.00
2023-05-16T02:24:51.281Z,94415.00
2023-05-16T02:25:51.374Z,94413.00
2023-05-16T02:26:51.369Z,94413.00
2023-05-16T02:27:51.394Z,94411.00
2023-05-16T02:28:51.484Z,94411.00
2023-05-16T02:29:51.586Z,94411.00
2023-05-16T02:30:51.626Z,94411.00
2023-05-16T02:31:51.644Z,94407.00
2023-05-16T02:32:51.737Z,94407.00
2023-05-16T02:33:51.737Z,94405.00
2023-05-16T02:34:51.794Z,94405.00
2023-05-16T02:35:51.841Z,94405.00
2023-05-16T02:36:51.951Z,94405.00
2023-05-16T02:37:51.938Z,94405.00
2023-05-16T02:38:51.974Z,94403.00
2023-05-16T02:39:52.187Z,94403.00
2023-05-16T02:40:52.080Z,94403.00
2023-05-16T02:41:52.202Z,94399.00
2023-05-16T02:42:52.166Z,94397.00
2023-05-16T02:43:52.158Z,94399.00
2023-05-16T02:44:52.213Z,94399.00
2023-05-16T02:45:52.329Z,94399.00
2023-05-16T02:46:52.447Z,94399.00
2023-05-16T02:47:52.454Z,94399.00
2023-05-16T02:48:52.437Z,94399.00
2023-05-16T02:49:52.575Z,94401.00
2023-05-16T02:50:52.516Z,94399.00
2023-05-16T02:51:52.625Z,94399.00
2023-05-16T02:52:52.714Z,94387.00
2023-05-16T02:53:52.686Z,94395.00
2023-05-16T02:55:52.763Z,94397.00
2023-05-16T02:56:52.766Z,94397.00
2023-05-16T02:57:52.718Z,94399.00
2023-05-16T02:58:52.715Z,94395.00
2023-05-16T02:59:52.780Z,94397.00
2023-05-16T03:00:52.717Z,94397.00
2023-05-16T03:01:52.818Z,94385.00
2023-05-16T03:02:52.894Z,94395.00
2023-05-16T03:03:52.853Z,94395.00
2023-05-16T03:04:52.720Z,94395.00
2023-05-16T03:05:52.724Z,94385.00
2023-05-16T03:06:52.690Z,94383.00
2023-05-16T03:07:52.657Z,94381.00
2023-05-16T03:08:52.673Z,94381.00
2023-05-16T03:09:52.653Z,94380.00
2023-05-16T03:10:52.658Z,94378.00
2023-05-16T03:11:52.669Z,94380.00
2023-05-16T03:12:52.668Z,94380.00
2023-05-16T03:13:52.691Z,94381.00
2023-05-16T03:14:52.620Z,94383.00
2023-05-16T03:15:52.656Z,94383.00
2023-05-16T03:16:52.609Z,94385.00
2023-05-16T03:17:52.711Z,94383.00
2023-05-16T03:18:52.633Z,94387.00
2023-05-16T03:19:52.573Z,94395.00
2023-05-16T03:20:52.607Z,94387.00
2023-05-16T03:21:52.591Z,94383.00
2023-05-16T03:22:52.562Z,94383.00
2023-05-16T03:23:52.572Z,94385.00
2023-05-16T03:24:52.540Z,94383.00
2023-05-16T03:25:52.555Z,94385.00
2023-05-16T03:26:52.528Z,94385.00
2023-05-16T03:27:52.567Z,94385.00
2023-05-16T03:28:52.504Z,94385.00
2023-05-16T03:29:52.604Z,94383.00
2023-05-16T03:30:52.519Z,94383.00
2023-05-16T03:31:52.567Z,94383.00
2023-05-16T03:32:52.512Z,94383.00
2023-05-16T03:33:52.479Z,94383.00
2023-05-16T03:34:52.548Z,94385.00
2023-05-16T03:35:52.479Z,94383.00
2023-05-16T03:36:52.455Z,94383.00
2023-05-16T03:37:52.463Z,94381.00
2023-05-16T03:38:52.454Z,94383.00
2023-05-16T03:39:52.436Z,94383.00
2023-05-16T03:40:52.448Z,94381.00
2023-05-16T03:41:52.416Z,94381.00
2023-05-16T03:42:52.517Z,94383.00
2023-05-16T03:43:52.532Z,94383.00
2023-05-16T03:44:52.650Z,94383.00
2023-05-16T03:45:52.707Z,94381.00
2023-05-16T03:46:52.713Z,94381.00
2023-05-16T03:47:52.763Z,94381.00
2023-05-16T03:48:52.819Z,94381.00
2023-05-16T03:49:52.847Z,94381.00
2023-05-16T03:50:52.889Z,94380.00
2023-05-16T03:51:52.952Z,94381.00
2023-05-16T03:52:53.011Z,94381.00
2023-05-16T03:53:53.035Z,94381.00
2023-05-16T03:54:53.094Z,94381.00
2023-05-16T03:55:53.169Z,94381.00
2023-05-16T03:56:53.202Z,94383.00
2023-05-16T03:57:53.283Z,94383.00
2023-05-16T03:58:53.312Z,94383.00
2023-05-16T03:59:53.359Z,94383.00
2023-05-16T04:00:53.416Z,94381.00
2023-05-16T04:01:53.520Z,94385.00
2023-05-16T04:02:53.675Z,94381.00
2023-05-16T04:03:53.493Z,94383.00
2023-05-16T04:04:53.537Z,94383.00
2023-05-16T04:05:53.684Z,94383.00
2023-05-16T04:06:53.610Z,94381.00
2023-05-16T04:07:53.700Z,94381.00
2023-05-16T04:08:53.785Z,94385.00
2023-05-16T04:09:53.779Z,94381.00
2023-05-16T04:10:53.852Z,94381.00
2023-05-16T04:11:53.875Z,94383.00
2023-05-16T04:12:53.898Z,94381.00
2023-05-16T04:13:53.973Z,94380.00
2023-05-16T04:14:54.057Z,94380.00
2023-05-16T04:15:54.078Z,94381.00
2023-05-16T04:16:54.126Z,94380.00
2023-05-16T04:17:54.247Z,94380.00
2023-05-16T04:18:54.341Z,94381.00
2023-05-16T04:19:54.303Z,94381.00
2023-05-16T04:20:54.347Z,94378.00
2023-05-16T04:21:54.431Z,94381.00
2023-05-16T04:22:54.474Z,94381.00
2023-05-16T04:23:54.532Z,94380.00
2023-05-16T04:24:54.583Z,94378.00
2023-05-16T04:25:54.652Z,94380.00
2023-05-16T04:26:54.719Z,94380.00
2023-05-16T04:27:54.782Z,94376.00
2023-05-16T04:28:54.892Z,94380.00
2023-05-16T04:29:55.163Z,94376.00
2023-05-16T04:30:54.931Z,94380.00
2023-05-16T04:31:55.037Z,94380.00
2023-05-16T04:32:55.118Z,94380.00
2023-05-16T04:33:55.123Z,94378.00
2023-05-16T04:34:55.178Z,94378.00
2023-05-16T04:35:55.193Z,94380.00
2023-05-16T04:36:55.290Z,94381.00
2023-05-16T04:37:55.288Z,94376.00
2023-05-16T04:38:55.304Z,94376.00
2023-05-16T04:39:55.369Z,94378.00
2023-05-16T04:40:55.410Z,94378.00
2023-05-16T04:41:55.431Z,94380.00
2023-05-16T04:42:55.489Z,94381.00
2023-05-16T04:43:55.539Z,94380.00
2023-05-16T04:44:55.560Z,94380.00
2023-05-16T04:45:55.647Z,94380.00
2023-05-16T04:46:55.664Z,94381.00
2023-05-16T04:47:55.748Z,94381.00
2023-05-16T04:48:55.637Z,94383.00
2023-05-16T04:49:55.646Z,94385.00
2023-05-16T04:50:55.711Z,94383.00
2023-05-16T04:51:55.710Z,94383.00
2023-05-16T04:52:56.574Z,94385.00
2023-05-16T04:53:55.652Z,94387.00
2023-05-16T04:54:55.740Z,94385.00
2023-05-16T04:55:55.668Z,94385.00
2023-05-16T04:56:55.676Z,94385.00
2023-05-16T04:57:55.668Z,94385.00
2023-05-16T04:58:55.708Z,94387.00
2023-05-16T04:59:55.765Z,94395.00
2023-05-16T05:00:55.733Z,94387.00
2023-05-16T05:01:55.717Z,94395.00
2023-05-16T05:02:55.729Z,94387.00
2023-05-16T05:03:55.643Z,94395.00
2023-05-16T05:04:55.640Z,94387.00
2023-05-16T05:05:55.613Z,94387.00
2023-05-16T05:06:55.625Z,94395.00
2023-05-16T05:07:55.696Z,94397.00
2023-05-16T05:08:55.651Z,94399.00
2023-05-16T05:09:55.615Z,94397.00
2023-05-16T05:10:55.616Z,94397.00
2023-05-16T05:11:55.622Z,94397.00
2023-05-16T05:12:55.630Z,94401.00
2023-05-16T05:13:55.661Z,94397.00
2023-05-16T05:14:55.645Z,94401.00
2023-05-16T05:15:55.599Z,94397.00
2023-05-16T05:16:55.630Z,94397.00
2023-05-16T05:17:55.676Z,94395.00
2023-05-16T05:18:55.686Z,94395.00
2023-05-16T05:19:55.588Z,94395.00
2023-05-16T05:20:55.620Z,94395.00
2023-05-16T05:21:55.562Z,94395.00
2023-05-16T05:22:55.591Z,94397.00
2023-05-16T05:23:55.592Z,94395.00
2023-05-16T05:24:55.580Z,94397.00
2023-05-16T05:25:55.658Z,94395.00
2023-05-16T05:26:55.613Z,94397.00
2023-05-16T05:27:55.603Z,94395.00
2023-05-16T05:29:04.505Z,94387.00
2023-05-16T05:29:56.609Z,94399.00
2023-05-16T05:30:55.700Z,94397.00
2023-05-16T05:31:55.622Z,94395.00
2023-05-16T05:32:55.588Z,94387.00
2023-05-16T05:33:55.593Z,94387.00
2023-05-16T05:34:55.619Z,94385.00
2023-05-16T05:35:55.679Z,94383.00
2023-05-16T05:36:55.621Z,94383.00
2023-05-16T05:37:55.654Z,94381.00
2023-05-16T05:38:55.523Z,94381.00
2023-05-16T05:39:55.582Z,94381.00
2023-05-16T05:40:55.607Z,94383.00
2023-05-16T05:41:55.527Z,94385.00
2023-05-16T05:42:55.566Z,94380.00
2023-05-16T05:43:55.567Z,94381.00
2023-05-16T05:44:55.515Z,94381.00
2023-05-16T05:45:55.514Z,94387.00
2023-05-16T05:46:55.572Z,94385.00
2023-05-16T05:47:55.464Z,94383.00
2023-05-16T05:48:55.522Z,94383.00
2023-05-16T05:49:55.512Z,94380.00
2023-05-16T05:50:55.477Z,94380.00
2023-05-16T05:51:55.432Z,94380.00
2023-05-16T05:52:55.428Z,94380.00
2023-05-16T05:53:55.404Z,94378.00
2023-05-16T05:54:55.946Z,94380.00
2023-05-16T05:55:55.512Z,94378.00
2023-05-16T05:56:55.523Z,94376.00
2023-05-16T05:57:55.535Z,94376.00
2023-05-16T05:58:55.695Z,94376.00
2023-05-16T05:59:55.707Z,94374.00
2023-05-16T06:00:55.694Z,94376.00
2023-05-16T06:01:55.795Z,94372.00
2023-05-16T06:02:56.002Z,94372.00
2023-05-16T06:03:55.922Z,94372.00
2023-05-16T06:04:55.977Z,94372.00
2023-05-16T06:05:56.059Z,94374.00
2023-05-16T06:06:56.108Z,94372.00
2023-05-16T06:07:56.104Z,94374.00
2023-05-16T06:08:56.216Z,94376.00
2023-05-16T06:09:56.270Z,94378.00
2023-05-16T06:10:57.864Z,94376.00
2023-05-16T06:11:56.332Z,94378.00
2023-05-16T06:12:56.446Z,94378.00
2023-05-16T06:13:56.496Z,94378.00
2023-05-16T06:14:56.565Z,94378.00
2023-05-16T06:15:56.610Z,94380.00
2023-05-16T06:16:56.707Z,94381.00
2023-05-16T06:17:56.821Z,94381.00
2023-05-16T06:18:56.856Z,94381.00
2023-05-16T06:19:56.855Z,94381.00
2023-05-16T06:20:56.910Z,94381.00
2023-05-16T06:21:56.961Z,94381.00
2023-05-16T06:22:57.079Z,94378.00
2023-05-16T06:23:57.076Z,94380.00
2023-05-16T06:24:57.141Z,94374.00
2023-05-16T06:25:57.252Z,94374.00
2023-05-16T06:26:57.315Z,94374.00
2023-05-16T06:27:57.390Z,94376.00
2023-05-16T06:28:57.426Z,94378.00
2023-05-16T06:29:57.479Z,94378.00
2023-05-16T06:30:57.634Z,94380.00
2023-05-16T06:31:57.773Z,94381.00
2023-05-16T06:32:57.685Z,94381.00
2023-05-16T06:33:57.664Z,94381.00
2023-05-16T06:34:57.720Z,94381.00
2023-05-16T06:35:57.736Z,94381.00
2023-05-16T06:36:57.844Z,94380.00
2023-05-16T06:37:58.458Z,94381.00
2023-05-16T06:38:58.117Z,94381.00
2023-05-16T06:39:57.704Z,94383.00
2023-05-16T06:40:58.629Z,94380.00
2023-05-16T06:41:57.720Z,94376.00
2023-05-16T06:42:57.726Z,94380.00
2023-05-16T06:43:57.728Z,94381.00
2023-05-16T06:44:57.737Z,94378.00
2023-05-16T06:45:57.810Z,94380.00
2023-05-16T06:46:57.940Z,94378.00
2023-05-16T06:47:57.904Z,94378.00
2023-05-16T06:48:57.891Z,94381.00
2023-05-16T06:49:57.974Z,94383.00
2023-05-16T06:50:58.058Z,94383.00
2023-05-16T06:51:58.088Z,94381.00
2023-05-16T06:52:58.155Z,94381.00
2023-05-16T06:53:58.211Z,94383.00
2023-05-16T06:54:58.277Z,94380.00
2023-05-16T06:55:58.316Z,94380.00
2023-05-16T06:56:58.386Z,94380.00
2023-05-16T06:57:58.439Z,94378.00
2023-05-16T06:58:58.503Z,94380.00
2023-05-16T06:59:58.569Z,94376.00
2023-05-16T07:00:58.635Z,94380.00
2023-05-16T07:01:58.676Z,94374.00
2023-05-16T07:02:58.787Z,94378.00
2023-05-16T07:03:58.931Z,94374.00
2023-05-16T07:04:58.843Z,94374.00
2023-05-16T07:05:58.903Z,94372.00
2023-05-16T07:06:58.980Z,94374.00
2023-05-16T07:07:59.081Z,94368.00
2023-05-16T07:08:59.138Z,94372.00
2023-05-16T07:09:59.202Z,94374.00
2023-05-16T07:10:59.235Z,94376.00
2023-05-16T07:11:59.284Z,94376.00
2023-05-16T07:12:59.334Z,94372.00
2023-05-16T07:13:59.420Z,94376.00
2023-05-16T07:14:59.427Z,94376.00
2023-05-16T07:15:59.564Z,94376.00
2023-05-16T07:16:59.645Z,94372.00
2023-05-16T07:17:59.704Z,94376.00
2023-05-16T07:18:59.709Z,94372.00
2023-05-16T07:19:59.736Z,94374.00
2023-05-16T07:20:59.783Z,94378.00
2023-05-16T07:21:59.829Z,94376.00
2023-05-16T07:22:59.907Z,94378.00
2023-05-16T07:23:59.948Z,94378.00
2023-05-16T07:25:00.039Z,94380.00
2023-05-16T07:26:00.087Z,94387.00
2023-05-16T07:27:00.075Z,94383.00
2023-05-16T07:28:00.239Z,94385.00
2023-05-16T07:29:00.185Z,94383.00
2023-05-16T07:30:00.253Z,94395.00
2023-05-16T07:31:00.324Z,94395.00
2023-05-16T07:32:00.441Z,94399.00
2023-05-16T07:33:00.486Z,94395.00
2023-05-16T07:34:00.544Z,94399.00
2023-05-16T07:35:00.591Z,94403.00
2023-05-16T07:36:12.010Z,94399.00
2023-05-16T07:37:01.554Z,94403.00
2023-05-16T07:38:00.559Z,94401.00
2023-05-16T07:39:00.560Z,94403.00
2023-05-16T07:40:00.537Z,94397.00
2023-05-16T07:41:00.536Z,94397.00
2023-05-16T07:42:00.560Z,94395.00
2023-05-16T07:43:00.485Z,94399.00
2023-05-16T07:44:00.488Z,94395.00
2023-05-16T07:45:00.619Z,94387.00
2023-05-16T07:46:00.644Z,94387.00
2023-05-16T07:47:00.688Z,94387.00
2023-05-16T07:48:00.749Z,94387.00
2023-05-16T07:49:01.069Z,94395.00
2023-05-16T07:50:00.800Z,94385.00
2023-05-16T07:51:00.873Z,94385.00
2023-05-16T07:52:01.048Z,94383.00
2023-05-16T07:53:00.982Z,94387.00
2023-05-16T07:54:01.014Z,94395.00
2023-05-16T07:55:01.126Z,94395.00
2023-05-16T07:56:01.141Z,94395.00
2023-05-16T07:57:01.138Z,94397.00
2023-05-16T07:58:01.235Z,94401.00
2023-05-16T07:59:01.290Z,94401.00
2023-05-16T08:00:01.382Z,94403.00
2023-05-16T08:01:01.337Z,94403.00
2023-05-16T08:02:01.399Z,94401.00
2023-05-16T08:03:01.569Z,94403.00
2023-05-16T08:04:01.690Z,94399.00
2023-05-16T08:05:01.596Z,94397.00
2023-05-16T08:06:01.652Z,94399.00
2023-05-16T08:07:01.661Z,94399.00
2023-05-16T08:08:01.689Z,94397.00
2023-05-16T08:09:01.734Z,94397.00
2023-05-16T08:10:01.797Z,94399.00
2023-05-16T08:11:01.802Z,94399.00
2023-05-16T08:12:02.079Z,94387.00
2023-05-16T08:13:01.950Z,94397.00
2023-05-16T08:14:01.983Z,94387.00
2023-05-16T08:15:01.994Z,94385.00
2023-05-16T08:16:02.119Z,94387.00
2023-05-16T08:17:02.061Z,94385.00
2023-05-16T08:18:02.137Z,94385.00
2023-05-16T08:19:02.383Z,94385.00
2023-05-16T08:20:02.238Z,94385.00
2023-05-16T08:21:02.275Z,94381.00
2023-05-16T08:22:02.298Z,94385.00
2023-05-16T08:23:02.351Z,94383.00
2023-05-16T08:24:02.840Z,94385.00
2023-05-16T08:25:02.427Z,94387.00
2023-05-16T08:26:02.469Z,94385.00
2023-05-16T08:27:02.508Z,94383.00
2023-05-16T08:28:02.605Z,94385.00
2023-05-16T08:29:02.638Z,94385.00
2023-05-16T08:30:02.645Z,94383.00
2023-05-16T08:31:02.777Z,94385.00
2023-05-16T08:32:02.833Z,94381.00
2023-05-16T08:33:02.870Z,94381.00
2023-05-16T08:34:02.894Z,94381.00
2023-05-16T08:35:03.551Z,94380.00
2023-05-16T08:36:03.060Z,94380.00
2023-05-16T08:37:03.143Z,94380.00
2023-05-16T08:38:03.345Z,94376.00
2023-05-16T08:39:03.287Z,94380.00
2023-05-16T08:40:03.182Z,94376.00
2023-05-16T08:41:03.290Z,94372.00
2023-05-16T08:42:03.295Z,94372.00
2023-05-16T08:43:03.414Z,94372.00
2023-05-16T08:44:03.416Z,94372.00
2023-05-16T08:45:03.519Z,94368.00
2023-05-16T08:46:03.486Z,94370.00
2023-05-16T08:47:03.813Z,94368.00
2023-05-16T08:48:03.710Z,94364.00
2023-05-16T08:49:03.708Z,94362.00
2023-05-16T08:50:03.686Z,94366.00
2023-05-16T08:51:03.792Z,94368.00
2023-05-16T08:52:03.833Z,94362.00
2023-05-16T08:53:03.896Z,94360.00
2023-05-16T08:54:03.915Z,94358.00
2023-05-16T08:55:10.408Z,94358.00
2023-05-16T08:56:04.953Z,94356.00
2023-05-16T08:57:04.500Z,94354.00
2023-05-16T08:58:03.932Z,94350.00
2023-05-16T08:59:03.999Z,94348.00
2023-05-16T09:00:03.943Z,94346.00
2023-05-16T09:01:03.977Z,94342.00
2023-05-16T09:02:03.911Z,94340.00
2023-05-16T09:03:03.933Z,94338.00
2023-05-16T09:04:03.971Z,94334.00
2023-05-16T09:05:03.865Z,94334.00
2023-05-16T09:06:04.553Z,94338.00
2023-05-16T09:07:03.931Z,94338.00
2023-05-16T09:08:03.890Z,94336.00
2023-05-16T09:09:04.002Z,94342.00
2023-05-16T09:10:03.996Z,94338.00
2023-05-16T09:11:04.004Z,94340.00
2023-05-16T09:12:04.180Z,94344.00
2023-05-16T09:13:04.119Z,94344.00
2023-05-16T09:14:04.129Z,94348.00
2023-05-16T09:15:04.548Z,94348.00
2023-05-16T09:16:04.245Z,94350.00
2023-05-16T09:17:04.345Z,94350.00
2023-05-16T09:18:04.422Z,94350.00
2023-05-16T09:19:04.410Z,94352.00
2023-05-16T09:20:04.362Z,94350.00
2023-05-16T09:21:04.376Z,94348.00
2023-05-16T09:22:04.489Z,94350.00
2023-05-16T09:23:04.674Z,94350.00
2023-05-16T09:24:04.561Z,94352.00
2023-05-16T09:25:06.880Z,94350.00
2023-05-16T09:26:04.478Z,94348.00
2023-05-16T09:27:04.531Z,94348.00
2023-05-16T09:28:04.609Z,94350.00
2023-05-16T09:29:04.495Z,94348.00
2023-05-16T09:30:04.659Z,94350.00
2023-05-16T09:31:04.558Z,94350.00
2023-05-16T09:32:04.476Z,94348.00
2023-05-16T09:33:04.548Z,94354.00
2023-05-16T09:34:04.546Z,94356.00
2023-05-16T09:35:04.525Z,94358.00
2023-05-16T09:36:04.501Z,94356.00
2023-05-16T09:37:04.556Z,94360.00
2023-05-16T09:38:04.514Z,94360.00
2023-05-16T09:39:04.453Z,94362.00
2023-05-16T09:40:04.464Z,94364.00
2023-05-16T09:41:04.415Z,94364.00
2023-05-16T09:42:04.429Z,94362.00
2023-05-16T09:43:04.635Z,94362.00
2023-05-16T09:44:04.391Z,94362.00
2023-05-16T09:45:04.487Z,94362.00
2023-05-16T09:46:04.473Z,94362.00
2023-05-16T09:47:04.358Z,94362.00
2023-05-16T09:48:04.408Z,94362.00
2023-05-16T09:49:04.392Z,94362.00
2023-05-16T09:50:04.432Z,94358.00
2023-05-16T09:51:04.378Z,94356.00
2023-05-16T09:52:04.320Z,94360.00
2023-05-16T09:53:04.522Z,94354.00
2023-05-16T09:54:04.347Z,94356.00
2023-05-16T09:55:04.320Z,94354.00
2023-05-16T09:56:04.529Z,94354.00
2023-05-16T09:57:04.411Z,94354.00
2023-05-16T09:58:04.337Z,94354.00
2023-05-16T09:59:04.290Z,94352.00
2023-05-16T10:00:04.298Z,94356.00
2023-05-16T10:01:04.321Z,94354.00
2023-05-16T10:02:04.290Z,94354.00
2023-05-16T10:03:05.782Z,94356.00
2023-05-16T10:04:04.565Z,94356.00
2023-05-16T10:05:04.259Z,94358.00
2023-05-16T10:06:04.255Z,94358.00
2023-05-16T10:07:04.315Z,94358.00
2023-05-16T10:08:04.217Z,94360.00
2023-05-16T10:09:04.260Z,94360.00
2023-05-16T10:10:04.339Z,94362.00
2023-05-16T10:11:04.345Z,94364.00
2023-05-16T10:12:04.366Z,94366.00
2023-05-16T10:13:04.367Z,94366.00
2023-05-16T10:14:06.046Z,94370.00
2023-05-16T10:15:04.441Z,94364.00
2023-05-16T10:16:04.581Z,94366.00
2023-05-16T10:17:05.013Z,94370.00
2023-05-16T10:18:04.426Z,94368.00
2023-05-16T10:19:04.446Z,94366.00
2023-05-16T10:20:04.370Z,94370.00
2023-05-16T10:21:04.441Z,94366.00
2023-05-16T10:22:04.402Z,94370.00
2023-05-16T10:23:04.381Z,94372.00
2023-05-16T10:24:04.350Z,94368.00
2023-05-16T10:25:04.359Z,94372.00
2023-05-16T10:26:04.322Z,94372.00
2023-05-16T10:27:04.335Z,94372.00
2023-05-16T10:28:04.346Z,94372.00
2023-05-16T10:29:04.321Z,94370.00
2023-05-16T10:30:04.271Z,94370.00
2023-05-16T10:31:04.407Z,94372.00
2023-05-16T10:32:04.321Z,94370.00
2023-05-16T10:33:04.371Z,94372.00
2023-05-16T10:34:04.278Z,94370.00
2023-05-16T10:35:04.280Z,94370.00
2023-05-16T10:36:04.291Z,94372.00
2023-05-16T10:37:04.363Z,94374.00
2023-05-16T10:38:06.578Z,94376.00
2023-05-16T10:39:04.212Z,94378.00
2023-05-16T10:40:04.194Z,94378.00
2023-05-16T10:41:04.206Z,94376.00
2023-05-16T10:42:04.196Z,94376.00
2023-05-16T10:43:04.209Z,94381.00
2023-05-16T10:44:04.173Z,94381.00
2023-05-16T10:45:05.872Z,94380.00
2023-05-16T10:46:04.246Z,94383.00
2023-05-16T10:47:04.218Z,94381.00
2023-05-16T10:48:04.205Z,94381.00
2023-05-16T10:49:04.181Z,94380.00
2023-05-16T10:50:04.107Z,94380.00
2023-05-16T10:51:04.422Z,94378.00
2023-05-16T10:52:04.116Z,94378.00
2023-05-16T10:53:04.155Z,94380.00
2023-05-16T10:54:04.415Z,94381.00
2023-05-16T10:55:04.199Z,94381.00
2023-05-16T10:56:04.255Z,94381.00
2023-05-16T10:57:04.281Z,94378.00
2023-05-16T10:58:04.388Z,94380.00
2023-05-16T10:59:04.357Z,94378.00
2023-05-16T11:00:04.385Z,94381.00
2023-05-16T11:01:04.459Z,94380.00
2023-05-16T11:02:04.663Z,94381.00
2023-05-16T11:03:04.609Z,94381.00
2023-05-16T11:04:04.910Z,94381.00
2023-05-16T11:05:04.579Z,94383.00
2023-05-16T11:06:04.628Z,94383.00
2023-05-16T11:07:04.678Z,94383.00
2023-05-16T11:08:04.703Z,94385.00
2023-05-16T11:09:04.749Z,94383.00
2023-05-16T11:10:04.792Z,94385.00
2023-05-16T11:11:04.819Z,94383.00
2023-05-16T11:12:04.876Z,94385.00
2023-05-16T11:13:04.924Z,94385.00
2023-05-16T11:14:05.063Z,94381.00
2023-05-16T11:15:05.009Z,94385.00
2023-05-16T11:16:05.095Z,94381.00
2023-05-16T11:17:05.258Z,94383.00
2023-05-16T11:18:05.630Z,94383.00
2023-05-16T11:19:05.297Z,94381.00
2023-05-16T11:20:05.403Z,94380.00
2023-05-16T11:21:05.349Z,94378.00
2023-05-16T11:22:05.421Z,94376.00
2023-05-16T11:23:05.460Z,94374.00
2023-05-16T11:24:05.466Z,94372.00
2023-05-16T11:25:05.532Z,94376.00
2023-05-16T11:26:05.568Z,94370.00
2023-05-16T11:27:05.629Z,94368.00
2023-05-16T11:28:05.941Z,94370.00
2023-05-16T11:29:05.748Z,94366.00
2023-05-16T11:30:05.795Z,94364.00
2023-05-16T11:31:05.852Z,94366.00
2023-05-16T11:32:05.954Z,94366.00
2023-05-16T11:33:06.033Z,94368.00
2023-05-16T11:34:05.957Z,94366.00
2023-05-16T11:35:05.994Z,94364.00
2023-05-16T11:37:06.022Z,94362.00
2023-05-16T11:38:06.036Z,94360.00
2023-05-16T11:39:06.029Z,94356.00
2023-05-16T11:40:06.037Z,94358.00
2023-05-16T11:41:05.984Z,94354.00
2023-05-16T11:42:06.024Z,94356.00
2023-05-16T11:43:07.472Z,94356.00
2023-05-16T11:44:05.976Z,94354.00
2023-05-16T11:45:05.970Z,94354.00
2023-05-16T11:46:06.055Z,94354.00
2023-05-16T11:47:06.036Z,94354.00